sensor_id;sensor_type;location;lat;lon;timestamp;P1;durP1;ratioP1;P2;durP2;ratioP2
19384;SDS011;9828;54.122;17.974;2023-03-26T00:02:06;12.30;;;6.53;;
19384;SDS011;9828;54.122;17.974;2023-03-26T00:07:26;22.77;;;12.20;;
19384;SDS011;9828;54.122;17.974;2023-03-26T00:12:47;17.47;;;10.80;;
19384;SDS011;9828;54.122;17.974;2023-03-26T00:18:08;9.47;;;5.57;;
19384;SDS011;9828;54.122;17.974;2023-03-26T00:23:30;22.47;;;15.40;;
19384;SDS011;9828;54.122;17.974;2023-03-26T00:28:54;41.43;;;25.03;;
19384;SDS011;9828;54.122;17.974;2023-03-26T00:34:15;18.33;;;9.73;;
19384;SDS011;9828;54.122;17.974;2023-03-26T00:39:38;14.03;;;7.67;;
19384;SDS011;9828;54.122;17.974;2023-03-26T00:44:59;18.90;;;8.57;;
19384;SDS011;9828;54.122;17.974;2023-03-26T00:50:20;22.63;;;9.47;;
19384;SDS011;9828;54.122;17.974;2023-03-26T00:55:41;14.90;;;7.13;;
19384;SDS011;9828;54.122;17.974;2023-03-26T01:01:06;8.83;;;4.00;;
19384;SDS011;9828;54.122;17.974;2023-03-26T01:06:48;8.73;;;5.80;;
19384;SDS011;9828;54.122;17.974;2023-03-26T01:12:12;16.57;;;6.53;;
19384;SDS011;9828;54.122;17.974;2023-03-26T01:17:36;9.67;;;4.17;;
19384;SDS011;9828;54.122;17.974;2023-03-26T01:22:58;12.07;;;4.67;;
19384;SDS011;9828;54.122;17.974;2023-03-26T01:28:25;12.30;;;6.97;;
19384;SDS011;9828;54.122;17.974;2023-03-26T01:33:50;9.07;;;4.27;;
19384;SDS011;9828;54.122;17.974;2023-03-26T01:39:23;12.00;;;4.87;;
19384;SDS011;9828;54.122;17.974;2023-03-26T01:45:04;11.33;;;4.77;;
19384;SDS011;9828;54.122;17.974;2023-03-26T01:50:27;12.33;;;7.40;;
19384;SDS011;9828;54.122;17.974;2023-03-26T01:55:53;12.27;;;5.50;;
19384;SDS011;9828;54.122;17.974;2023-03-26T02:07:12;4.90;;;3.03;;
19384;SDS011;9828;54.122;17.974;2023-03-26T02:12:41;8.70;;;5.53;;
19384;SDS011;9828;54.122;17.974;2023-03-26T02:18:03;7.50;;;3.80;;
19384;SDS011;9828;54.122;17.974;2023-03-26T02:23:25;5.30;;;2.97;;
19384;SDS011;9828;54.122;17.974;2023-03-26T02:28:48;8.33;;;5.17;;
19384;SDS011;9828;54.122;17.974;2023-03-26T02:34:10;10.13;;;5.77;;
19384;SDS011;9828;54.122;17.974;2023-03-26T02:39:37;6.47;;;3.43;;
19384;SDS011;9828;54.122;17.974;2023-03-26T02:45:10;5.77;;;3.30;;
19384;SDS011;9828;54.122;17.974;2023-03-26T02:51:00;8.23;;;4.87;;
19384;SDS011;9828;54.122;17.974;2023-03-26T02:56:47;8.03;;;3.70;;
19384;SDS011;9828;54.122;17.974;2023-03-26T03:02:27;7.33;;;3.60;;
19384;SDS011;9828;54.122;17.974;2023-03-26T03:07:54;4.70;;;3.00;;
19384;SDS011;9828;54.122;17.974;2023-03-26T03:13:19;8.23;;;4.40;;
19384;SDS011;9828;54.122;17.974;2023-03-26T03:18:40;7.03;;;4.27;;
19384;SDS011;9828;54.122;17.974;2023-03-26T03:24:01;6.07;;;3.30;;
19384;SDS011;9828;54.122;17.974;2023-03-26T03:29:26;5.87;;;3.40;;
19384;SDS011;9828;54.122;17.974;2023-03-26T03:34:50;6.37;;;3.80;;
19384;SDS011;9828;54.122;17.974;2023-03-26T03:40:11;5.00;;;3.57;;
19384;SDS011;9828;54.122;17.974;2023-03-26T03:45:33;5.57;;;3.20;;
19384;SDS011;9828;54.122;17.974;2023-03-26T03:51:27;5.17;;;3.13;;
19384;SDS011;9828;54.122;17.974;2023-03-26T03:56:53;5.97;;;3.87;;
19384;SDS011;9828;54.122;17.974;2023-03-26T04:02:30;4.37;;;3.10;;
19384;SDS011;9828;54.122;17.974;2023-03-26T04:07:57;4.37;;;2.80;;
19384;SDS011;9828;54.122;17.974;2023-03-26T04:13:19;9.43;;;2.70;;
19384;SDS011;9828;54.122;17.974;2023-03-26T04:18:47;5.13;;;3.23;;
19384;SDS011;9828;54.122;17.974;2023-03-26T04:24:08;4.07;;;2.73;;
19384;SDS011;9828;54.122;17.974;2023-03-26T04:30:02;3.27;;;2.00;;
19384;SDS011;9828;54.122;17.974;2023-03-26T04:35:26;2.10;;;1.80;;
19384;SDS011;9828;54.122;17.974;2023-03-26T04:40:50;2.20;;;1.80;;
19384;SDS011;9828;54.122;17.974;2023-03-26T04:46:32;4.37;;;2.20;;
19384;SDS011;9828;54.122;17.974;2023-03-26T04:52:08;13.03;;;4.70;;
19384;SDS011;9828;54.122;17.974;2023-03-26T04:57:42;10.60;;;4.17;;
19384;SDS011;9828;54.122;17.974;2023-03-26T05:03:27;3.90;;;1.67;;
19384;SDS011;9828;54.122;17.974;2023-03-26T05:08:56;1.60;;;1.10;;
19384;SDS011;9828;54.122;17.974;2023-03-26T05:14:37;1.43;;;1.33;;
19384;SDS011;9828;54.122;17.974;2023-03-26T05:20:07;1.33;;;1.10;;
19384;SDS011;9828;54.122;17.974;2023-03-26T05:25:36;2.00;;;1.03;;
19384;SDS011;9828;54.122;17.974;2023-03-26T05:31:06;1.63;;;1.07;;
19384;SDS011;9828;54.122;17.974;2023-03-26T05:36:31;1.47;;;1.10;;
19384;SDS011;9828;54.122;17.974;2023-03-26T05:42:12;2.20;;;1.77;;
19384;SDS011;9828;54.122;17.974;2023-03-26T05:48:07;3.07;;;2.20;;
19384;SDS011;9828;54.122;17.974;2023-03-26T05:53:30;3.23;;;2.20;;
19384;SDS011;9828;54.122;17.974;2023-03-26T05:59:10;2.87;;;1.47;;
19384;SDS011;9828;54.122;17.974;2023-03-26T06:04:50;3.27;;;2.13;;
19384;SDS011;9828;54.122;17.974;2023-03-26T06:10:30;5.60;;;2.90;;
19384;SDS011;9828;54.122;17.974;2023-03-26T06:15:52;13.33;;;6.37;;
19384;SDS011;9828;54.122;17.974;2023-03-26T06:21:25;4.73;;;2.20;;
19384;SDS011;9828;54.122;17.974;2023-03-26T06:26:52;1.73;;;1.30;;
19384;SDS011;9828;54.122;17.974;2023-03-26T06:32:22;1.70;;;1.10;;
19384;SDS011;9828;54.122;17.974;2023-03-26T06:37:54;1.80;;;1.10;;
19384;SDS011;9828;54.122;17.974;2023-03-26T06:43:16;1.10;;;1.00;;
19384;SDS011;9828;54.122;17.974;2023-03-26T06:49:06;1.10;;;1.00;;
19384;SDS011;9828;54.122;17.974;2023-03-26T06:55:03;1.40;;;0.73;;
19384;SDS011;9828;54.122;17.974;2023-03-26T07:01:00;0.77;;;0.70;;
19384;SDS011;9828;54.122;17.974;2023-03-26T07:06:40;0.90;;;0.80;;
19384;SDS011;9828;54.122;17.974;2023-03-26T07:12:40;1.23;;;0.60;;
19384;SDS011;9828;54.122;17.974;2023-03-26T07:18:21;0.90;;;0.80;;
19384;SDS011;9828;54.122;17.974;2023-03-26T07:23:44;1.93;;;0.67;;
19384;SDS011;9828;54.122;17.974;2023-03-26T07:35:09;1.27;;;0.90;;
19384;SDS011;9828;54.122;17.974;2023-03-26T07:47:00;0.60;;;0.60;;
19384;SDS011;9828;54.122;17.974;2023-03-26T07:52:33;0.70;;;0.70;;
19384;SDS011;9828;54.122;17.974;2023-03-26T08:21:19;0.67;;;0.67;;
19384;SDS011;9828;54.122;17.974;2023-03-26T08:26:57;0.90;;;0.70;;
19384;SDS011;9828;54.122;17.974;2023-03-26T08:32:26;0.77;;;0.70;;
19384;SDS011;9828;54.122;17.974;2023-03-26T08:37:47;1.43;;;0.70;;
19384;SDS011;9828;54.122;17.974;2023-03-26T09:16:54;2.63;;;1.30;;
19384;SDS011;9828;54.122;17.974;2023-03-26T09:39:27;7.03;;;3.20;;
19384;SDS011;9828;54.122;17.974;2023-03-26T10:02:34;6.30;;;1.73;;
19384;SDS011;9828;54.122;17.974;2023-03-26T10:53:03;3.50;;;1.20;;
19384;SDS011;9828;54.122;17.974;2023-03-26T10:58:49;3.63;;;0.93;;
19384;SDS011;9828;54.122;17.974;2023-03-26T11:04:19;3.43;;;1.10;;
19384;SDS011;9828;54.122;17.974;2023-03-26T11:21:23;1.43;;;0.77;;
19384;SDS011;9828;54.122;17.974;2023-03-26T11:32:40;1.97;;;0.80;;
19384;SDS011;9828;54.122;17.974;2023-03-26T11:38:28;2.93;;;0.83;;
19384;SDS011;9828;54.122;17.974;2023-03-26T11:44:17;3.80;;;1.30;;
19384;SDS011;9828;54.122;17.974;2023-03-26T11:49:41;2.40;;;1.30;;
19384;SDS011;9828;54.122;17.974;2023-03-26T11:55:04;2.30;;;1.10;;
19384;SDS011;9828;54.122;17.974;2023-03-26T12:00:25;4.77;;;1.33;;
19384;SDS011;9828;54.122;17.974;2023-03-26T12:05:50;4.23;;;1.47;;
19384;SDS011;9828;54.122;17.974;2023-03-26T12:11:17;3.43;;;1.40;;
19384;SDS011;9828;54.122;17.974;2023-03-26T12:23:03;6.53;;;2.37;;
19384;SDS011;9828;54.122;17.974;2023-03-26T12:28:29;2.13;;;1.10;;
19384;SDS011;9828;54.122;17.974;2023-03-26T12:39:40;2.10;;;0.97;;
19384;SDS011;9828;54.122;17.974;2023-03-26T12:45:03;3.33;;;1.23;;
19384;SDS011;9828;54.122;17.974;2023-03-26T12:50:38;2.37;;;1.00;;
19384;SDS011;9828;54.122;17.974;2023-03-26T12:56:29;6.27;;;2.03;;
19384;SDS011;9828;54.122;17.974;2023-03-26T13:36:57;3.33;;;1.23;;
19384;SDS011;9828;54.122;17.974;2023-03-26T13:48:13;2.80;;;1.40;;
19384;SDS011;9828;54.122;17.974;2023-03-26T13:53:41;4.47;;;1.40;;
19384;SDS011;9828;54.122;17.974;2023-03-26T13:59:15;3.27;;;1.20;;
19384;SDS011;9828;54.122;17.974;2023-03-26T14:04:48;3.53;;;0.90;;
19384;SDS011;9828;54.122;17.974;2023-03-26T14:10:17;4.00;;;1.87;;
19384;SDS011;9828;54.122;17.974;2023-03-26T14:15:54;3.90;;;1.70;;
19384;SDS011;9828;54.122;17.974;2023-03-26T14:39:03;4.00;;;1.20;;
19384;SDS011;9828;54.122;17.974;2023-03-26T14:50:51;1.77;;;0.60;;
19384;SDS011;9828;54.122;17.974;2023-03-26T16:04:53;13.80;;;3.57;;
19384;SDS011;9828;54.122;17.974;2023-03-26T16:10:49;7.20;;;2.03;;
19384;SDS011;9828;54.122;17.974;2023-03-26T16:21:35;7.83;;;2.67;;
19384;SDS011;9828;54.122;17.974;2023-03-26T16:27:04;8.03;;;2.70;;
19384;SDS011;9828;54.122;17.974;2023-03-26T16:32:32;16.13;;;4.03;;
19384;SDS011;9828;54.122;17.974;2023-03-26T16:38:08;13.40;;;3.87;;
19384;SDS011;9828;54.122;17.974;2023-03-26T16:43:42;15.67;;;3.50;;
19384;SDS011;9828;54.122;17.974;2023-03-26T16:55:05;10.73;;;3.00;;
19384;SDS011;9828;54.122;17.974;2023-03-26T17:06:22;13.70;;;4.50;;
19384;SDS011;9828;54.122;17.974;2023-03-26T17:28:50;17.47;;;5.40;;
19384;SDS011;9828;54.122;17.974;2023-03-26T17:45:26;13.20;;;4.00;;
19384;SDS011;9828;54.122;17.974;2023-03-26T17:50:51;17.33;;;5.50;;
19384;SDS011;9828;54.122;17.974;2023-03-26T17:56:15;14.27;;;4.17;;
19384;SDS011;9828;54.122;17.974;2023-03-26T18:01:41;13.10;;;5.07;;
19384;SDS011;9828;54.122;17.974;2023-03-26T18:23:51;9.30;;;2.60;;
19384;SDS011;9828;54.122;17.974;2023-03-26T18:34:57;12.00;;;4.37;;
19384;SDS011;9828;54.122;17.974;2023-03-26T18:40:20;17.27;;;5.30;;
19384;SDS011;9828;54.122;17.974;2023-03-26T18:45:43;14.10;;;4.80;;
19384;SDS011;9828;54.122;17.974;2023-03-26T18:51:07;9.57;;;3.43;;
19384;SDS011;9828;54.122;17.974;2023-03-26T18:56:30;13.57;;;4.60;;
19384;SDS011;9828;54.122;17.974;2023-03-26T19:01:55;10.80;;;3.23;;
19384;SDS011;9828;54.122;17.974;2023-03-26T19:07:18;12.47;;;3.93;;
19384;SDS011;9828;54.122;17.974;2023-03-26T19:12:45;12.70;;;4.00;;
19384;SDS011;9828;54.122;17.974;2023-03-26T19:18:18;14.37;;;4.87;;
19384;SDS011;9828;54.122;17.974;2023-03-26T19:23:44;11.20;;;4.07;;
19384;SDS011;9828;54.122;17.974;2023-03-26T19:29:08;10.80;;;3.40;;
19384;SDS011;9828;54.122;17.974;2023-03-26T19:34:34;7.67;;;2.57;;
19384;SDS011;9828;54.122;17.974;2023-03-26T19:40:00;10.37;;;2.77;;
19384;SDS011;9828;54.122;17.974;2023-03-26T19:45:50;10.87;;;2.70;;
19384;SDS011;9828;54.122;17.974;2023-03-26T19:51:16;7.70;;;2.60;;
19384;SDS011;9828;54.122;17.974;2023-03-26T19:56:54;8.60;;;2.40;;
19384;SDS011;9828;54.122;17.974;2023-03-26T20:02:15;11.50;;;2.37;;
19384;SDS011;9828;54.122;17.974;2023-03-26T20:07:37;8.30;;;2.93;;
19384;SDS011;9828;54.122;17.974;2023-03-26T20:12:58;7.90;;;2.87;;
19384;SDS011;9828;54.122;17.974;2023-03-26T20:18:20;12.10;;;3.77;;
19384;SDS011;9828;54.122;17.974;2023-03-26T20:23:41;8.87;;;4.70;;
19384;SDS011;9828;54.122;17.974;2023-03-26T20:29:03;13.80;;;4.80;;
19384;SDS011;9828;54.122;17.974;2023-03-26T20:34:24;10.37;;;4.07;;
19384;SDS011;9828;54.122;17.974;2023-03-26T20:39:47;14.60;;;4.57;;
19384;SDS011;9828;54.122;17.974;2023-03-26T20:45:19;12.00;;;3.93;;
19384;SDS011;9828;54.122;17.974;2023-03-26T20:50:42;9.93;;;3.87;;
19384;SDS011;9828;54.122;17.974;2023-03-26T20:56:16;9.37;;;4.37;;
19384;SDS011;9828;54.122;17.974;2023-03-26T21:01:38;7.93;;;3.40;;
19384;SDS011;9828;54.122;17.974;2023-03-26T21:06:59;9.30;;;3.00;;
19384;SDS011;9828;54.122;17.974;2023-03-26T21:12:27;8.83;;;2.53;;
19384;SDS011;9828;54.122;17.974;2023-03-26T21:17:53;10.47;;;2.60;;
19384;SDS011;9828;54.122;17.974;2023-03-26T21:28:49;7.60;;;2.50;;
19384;SDS011;9828;54.122;17.974;2023-03-26T21:34:11;9.23;;;3.47;;
19384;SDS011;9828;54.122;17.974;2023-03-26T21:39:33;13.03;;;4.67;;
19384;SDS011;9828;54.122;17.974;2023-03-26T21:44:54;8.63;;;3.13;;
19384;SDS011;9828;54.122;17.974;2023-03-26T21:50:16;8.57;;;2.23;;
19384;SDS011;9828;54.122;17.974;2023-03-26T22:12:23;4.43;;;1.30;;
19384;SDS011;9828;54.122;17.974;2023-03-26T22:17:45;3.27;;;1.60;;
19384;SDS011;9828;54.122;17.974;2023-03-26T22:23:13;2.40;;;1.50;;
19384;SDS011;9828;54.122;17.974;2023-03-26T22:28:34;4.83;;;1.57;;
19384;SDS011;9828;54.122;17.974;2023-03-26T22:33:55;2.50;;;1.47;;
19384;SDS011;9828;54.122;17.974;2023-03-26T22:39:16;5.10;;;1.87;;
19384;SDS011;9828;54.122;17.974;2023-03-26T22:44:37;4.63;;;1.73;;
19384;SDS011;9828;54.122;17.974;2023-03-26T22:49:58;1.90;;;1.20;;
19384;SDS011;9828;54.122;17.974;2023-03-26T22:55:20;3.43;;;1.53;;
19384;SDS011;9828;54.122;17.974;2023-03-26T23:00:42;3.60;;;1.60;;
19384;SDS011;9828;54.122;17.974;2023-03-26T23:06:05;1.57;;;0.97;;
19384;SDS011;9828;54.122;17.974;2023-03-26T23:11:28;4.90;;;1.10;;
19384;SDS011;9828;54.122;17.974;2023-03-26T23:16:50;4.67;;;1.00;;
19384;SDS011;9828;54.122;17.974;2023-03-26T23:22:11;2.63;;;1.13;;
19384;SDS011;9828;54.122;17.974;2023-03-26T23:27:32;1.70;;;1.00;;
19384;SDS011;9828;54.122;17.974;2023-03-26T23:32:54;1.97;;;1.07;;
19384;SDS011;9828;54.122;17.974;2023-03-26T23:38:16;3.40;;;1.13;;
19384;SDS011;9828;54.122;17.974;2023-03-26T23:43:39;2.67;;;0.80;;
19384;SDS011;9828;54.122;17.974;2023-03-26T23:49:01;2.57;;;0.80;;
19384;SDS011;9828;54.122;17.974;2023-03-26T23:54:22;1.20;;;1.00;;
19384;SDS011;9828;54.122;17.974;2023-03-26T23:59:44;6.83;;;0.97;;
